createdAt,value
2022-11-02T00:03:06.199Z,97840.78
2022-11-02T00:08:09.696Z,97842.94
2022-11-02T00:13:13.826Z,97833.75
2022-11-02T00:18:17.878Z,97834.81
2022-11-02T00:23:25.608Z,97826.69
2022-11-02T00:28:29.491Z,97831.59
2022-11-02T00:33:33.537Z,97831.03
2022-11-02T00:38:36.930Z,97831.03
2022-11-02T00:43:40.431Z,97827.50
2022-11-02T00:48:44.064Z,97828.59
2022-11-02T00:53:49.022Z,97834.81
2022-11-02T00:58:59.516Z,97829.16
2022-11-02T01:04:06.533Z,97820.22
2022-11-02T01:09:11.349Z,97820.22
2022-11-02T01:14:15.955Z,97826.13
2022-11-02T01:19:19.994Z,97833.41
2022-11-02T01:24:23.692Z,97817.72
2022-11-02T01:29:27.830Z,97816.06
2022-11-02T01:34:31.376Z,97807.94
2022-11-02T01:39:34.815Z,97812.78
2022-11-02T01:44:38.785Z,97814.41
2022-11-02T01:49:44.698Z,97810.09
2022-11-02T01:54:54.689Z,97807.63
2022-11-02T02:00:05.345Z,97808.72
2022-11-02T02:05:18.108Z,97814.94
2022-11-02T02:10:21.955Z,97810.03
2022-11-02T02:15:35.020Z,97811.38
2022-11-02T02:21:15.281Z,97815.13
2022-11-02T02:27:20.268Z,97805.69
2022-11-02T02:32:49.378Z,97810.31
2022-11-02T02:38:21.248Z,97808.69
2022-11-02T02:43:46.468Z,97801.38
2022-11-02T02:48:52.753Z,97808.13
2022-11-02T02:54:01.740Z,97804.63
2022-11-02T02:59:28.445Z,97802.97
2022-11-02T03:04:34.769Z,97814.56
2022-11-02T03:09:46.339Z,97822.88
2022-11-02T03:14:56.337Z,97821.00
2022-11-02T03:20:18.461Z,97824.19
2022-11-02T03:25:28.866Z,97821.75
2022-11-02T03:30:39.697Z,97823.91
2022-11-02T03:35:43.375Z,97831.22
2022-11-02T03:40:50.951Z,97821.50
2022-11-02T03:46:03.018Z,97822.06
2022-11-02T03:51:12.126Z,97831.53
2022-11-02T03:56:25.315Z,97822.34
2022-11-02T04:01:31.183Z,97831.28
2022-11-02T04:06:35.978Z,97829.09
2022-11-02T04:11:39.788Z,97828.28
2022-11-02T04:16:47.540Z,97833.66
2022-11-02T04:22:01.726Z,97832.63
2022-11-02T04:27:07.250Z,97829.66
2022-11-02T04:32:11.122Z,97836.41
2022-11-02T04:37:15.555Z,97832.94
2022-11-02T04:42:19.329Z,97828.91
2022-11-02T04:47:32.918Z,97837.03
2022-11-02T04:52:36.565Z,97841.97
2022-11-02T04:57:45.194Z,97849.03
2022-11-02T05:02:50.617Z,97850.94
2022-11-02T05:07:56.890Z,97854.47
2022-11-02T05:13:00.466Z,97845.88
2022-11-02T05:18:08.913Z,97859.72
2022-11-02T05:23:12.950Z,97863.00
2022-11-02T05:28:16.270Z,97869.03
2022-11-02T05:33:20.689Z,97875.88
2022-11-02T05:38:26.159Z,97886.53
2022-11-02T05:43:30.294Z,97888.16
2022-11-02T05:48:35.226Z,97894.41
2022-11-02T05:53:38.535Z,97892.13
2022-11-02T05:58:42.263Z,97901.75
2022-11-02T06:03:49.060Z,97903.00
2022-11-02T06:09:02.842Z,97910.31
2022-11-02T06:14:09.496Z,97917.47
2022-11-02T06:19:16.099Z,97916.09
2022-11-02T06:24:19.462Z,97915.84
2022-11-02T06:29:25.483Z,97925.09
2022-11-02T06:34:29.489Z,97923.28
2022-11-02T06:39:32.926Z,97918.78
2022-11-02T06:44:36.661Z,97924.03
2022-11-02T06:49:41.877Z,97934.97
2022-11-02T06:54:45.295Z,97929.47
2022-11-02T06:59:53.810Z,97937.47
2022-11-02T07:04:57.684Z,97931.88
2022-11-02T07:10:01.089Z,97934.94
2022-11-02T07:15:04.678Z,97933.56
2022-11-02T07:20:08.473Z,97935.47
2022-11-02T07:25:12.136Z,97926.09
2022-11-02T07:30:15.358Z,97933.75
2022-11-02T07:35:18.740Z,97922.88
2022-11-02T07:40:23.009Z,97926.78
2022-11-02T07:45:26.980Z,97916.25
2022-11-02T07:50:30.431Z,97913.94
2022-11-02T07:55:34.468Z,97914.50
2022-11-02T08:00:40.204Z,97907.50
2022-11-02T08:05:43.841Z,97904.00
2022-11-02T08:10:49.816Z,97903.78
2022-11-02T08:15:54.533Z,97897.03
2022-11-02T08:21:01.451Z,97894.34
2022-11-02T08:26:05.050Z,97887.50
2022-11-02T08:31:15.216Z,97880.97
2022-11-02T08:36:19.045Z,97879.56
2022-11-02T08:41:24.756Z,97885.38
2022-11-02T08:46:30.725Z,97869.50
2022-11-02T08:51:33.903Z,97867.09
2022-11-02T08:56:37.191Z,97866.28
2022-11-02T09:01:40.607Z,97855.91
2022-11-02T09:06:44.301Z,97850.28
2022-11-02T09:11:51.367Z,97835.56
2022-11-02T09:16:57.268Z,97843.69
2022-11-02T09:22:04.843Z,97837.91
2022-11-02T09:27:13.546Z,97819.09
2022-11-02T09:32:20.877Z,97818.25
2022-11-02T09:37:28.461Z,97807.28
2022-11-02T09:42:40.285Z,97808.91
2022-11-02T09:48:15.347Z,97806.25
2022-11-02T09:53:22.638Z,97811.50
2022-11-02T09:58:34.359Z,97814.44
2022-11-02T10:04:11.807Z,97810.28
2022-11-02T10:09:28.320Z,97808.06
2022-11-02T10:14:38.382Z,97790.63
2022-11-02T10:19:48.614Z,97783.56
2022-11-02T10:24:54.875Z,97768.03
2022-11-02T10:30:13.635Z,97776.03
2022-11-02T10:36:04.341Z,97775.75
2022-11-02T10:41:36.031Z,97766.78
2022-11-02T10:46:39.129Z,97770.69
2022-11-02T10:51:44.593Z,97766.59
2022-11-02T10:56:51.637Z,97759.06
2022-11-02T11:01:57.929Z,97760.59
2022-11-02T11:07:07.775Z,97763.31
2022-11-02T11:12:16.257Z,97756.94
2022-11-02T11:23:27.483Z,97760.31
2022-11-02T11:28:53.709Z,97747.50
2022-11-02T11:33:59.293Z,97727.91
2022-11-02T11:39:07.293Z,97722.72
2022-11-02T11:44:15.742Z,97729.94
2022-11-02T11:54:56.568Z,97724.72
2022-11-02T12:00:05.199Z,97720.16
2022-11-02T12:05:17.586Z,97722.00
2022-11-02T12:11:18.918Z,97729.91
2022-11-02T12:16:54.826Z,97730.72
2022-11-02T12:22:24.210Z,97738.78
2022-11-02T12:27:48.490Z,97733.38
2022-11-02T12:33:05.466Z,97739.19
2022-11-02T12:38:46.994Z,97739.34
2022-11-02T12:44:13.968Z,97738.84
2022-11-02T12:49:37.164Z,97744.22
2022-11-02T12:54:52.459Z,97744.47
2022-11-02T13:00:01.907Z,97745.38
2022-11-02T13:05:15.480Z,97744.94
2022-11-02T13:10:21.445Z,97751.59
2022-11-02T13:15:27.949Z,97757.38
2022-11-02T13:20:39.678Z,97758.00
2022-11-02T13:25:49.465Z,97754.56
2022-11-02T13:30:55.171Z,97747.38
2022-11-02T13:36:01.147Z,97746.59
2022-11-02T13:41:13.755Z,97735.25
2022-11-02T13:46:52.153Z,97734.19
2022-11-02T13:52:13.896Z,97733.75
2022-11-02T13:57:42.813Z,97738.44
2022-11-02T14:02:46.643Z,97729.25
2022-11-02T14:07:50.359Z,97730.94
2022-11-02T14:12:54.475Z,97737.84
2022-11-02T14:18:08.094Z,97735.16
2022-11-02T14:23:11.656Z,97741.75
2022-11-02T14:28:24.230Z,97745.31
2022-11-02T14:33:43.886Z,97749.69
2022-11-02T14:39:10.092Z,97756.50
2022-11-02T14:44:50.946Z,97761.94
2022-11-02T14:50:04.430Z,97763.06
2022-11-02T14:55:25.547Z,97763.34
2022-11-02T15:00:49.944Z,97768.53
2022-11-02T15:06:15.330Z,97778.31
2022-11-02T15:12:09.638Z,97791.09
2022-11-02T15:17:13.010Z,97789.47
2022-11-02T15:22:43.524Z,97784.06
2022-11-02T15:27:49.575Z,97782.69
2022-11-02T15:33:06.499Z,97781.34
2022-11-02T15:38:19.198Z,97773.47
2022-11-02T15:43:27.038Z,97776.19
2022-11-02T15:48:48.409Z,97785.97
2022-11-02T15:54:13.863Z,97779.19
2022-11-02T15:59:20.320Z,97785.16
2022-11-02T16:04:24.665Z,97789.78
2022-11-02T16:09:35.320Z,97799.53
2022-11-02T16:14:40.480Z,97806.81
2022-11-02T16:19:43.543Z,97810.63
2022-11-02T16:24:47.223Z,97809.28
2022-11-02T16:29:51.091Z,97820.41
2022-11-02T16:34:55.373Z,97825.81
2022-11-02T16:40:01.093Z,97830.13
2022-11-02T16:45:31.862Z,97826.09
2022-11-02T16:50:35.456Z,97826.06
2022-11-02T16:55:47.925Z,97819.03
2022-11-02T17:00:59.451Z,97825.25
2022-11-02T17:06:05.681Z,97827.41
2022-11-02T17:11:15.286Z,97832.81
2022-11-02T17:16:19.477Z,97836.63
2022-11-02T17:21:27.031Z,97837.16
2022-11-02T17:26:33.588Z,97838.22
2022-11-02T17:31:38.840Z,97831.72
2022-11-02T17:36:43.890Z,97830.63
2022-11-02T17:41:53.061Z,97850.44
2022-11-02T17:46:56.579Z,97854.78
2022-11-02T17:52:00.041Z,97855.34
2022-11-02T17:57:11.665Z,97852.34
2022-11-02T18:02:16.395Z,97859.69
2022-11-02T18:07:20.839Z,97857.00
2022-11-02T18:12:24.315Z,97855.38
2022-11-02T18:17:34.895Z,97857.25
2022-11-02T18:22:39.003Z,97854.84
2022-11-02T18:27:42.679Z,97861.63
2022-11-02T18:32:46.846Z,97865.16
2022-11-02T18:37:51.215Z,97847.78
2022-11-02T18:42:55.120Z,97860.50
2022-11-02T18:47:58.611Z,97849.09
2022-11-02T18:53:01.939Z,97855.03
2022-11-02T18:58:05.634Z,97853.44
2022-11-02T19:03:11.522Z,97853.72
2022-11-02T19:08:17.306Z,97860.47
2022-11-02T19:13:27.847Z,97864.25
2022-11-02T19:18:31.473Z,97869.16
2022-11-02T19:23:34.802Z,97868.06
2022-11-02T19:28:38.313Z,97864.81
2022-11-02T19:33:41.531Z,97866.97
2022-11-02T19:38:45.133Z,97867.22
2022-11-02T19:43:49.004Z,97866.94
2022-11-02T19:48:54.837Z,97868.84
2022-11-02T19:54:00.126Z,97868.84
2022-11-02T19:59:04.752Z,97875.63
2022-11-02T20:04:09.102Z,97869.38
2022-11-02T20:09:17.908Z,97869.38
2022-11-02T20:14:21.087Z,97865.28
2022-11-02T20:19:25.013Z,97862.03
2022-11-02T20:24:28.743Z,97862.03
2022-11-02T20:29:32.405Z,97860.44
2022-11-02T20:34:36.517Z,97861.78
2022-11-02T20:39:39.842Z,97853.09
2022-11-02T20:44:43.124Z,97855.56
2022-11-02T20:49:50.943Z,97858.81
2022-11-02T20:54:55.289Z,97858.81
2022-11-02T20:59:58.706Z,97854.22
2022-11-02T21:05:05.105Z,97853.94
2022-11-02T21:10:12.385Z,97854.75
2022-11-02T21:15:16.233Z,97849.03
2022-11-02T21:20:35.340Z,97854.19
2022-11-02T21:25:39.225Z,97844.72
2022-11-02T21:30:43.011Z,97842.53
2022-11-02T21:35:47.857Z,97832.78
2022-11-02T21:40:52.235Z,97823.84
2022-11-02T21:46:00.989Z,97842.00
2022-11-02T21:51:13.643Z,97844.75
2022-11-02T21:56:23.151Z,97849.09
2022-11-02T22:01:28.761Z,97855.88
2022-11-02T22:06:32.419Z,97873.78
2022-11-02T22:11:36.074Z,97864.03
2022-11-02T22:16:42.265Z,97865.88
2022-11-02T22:21:46.486Z,97865.88
2022-11-02T22:26:50.883Z,97853.66
2022-11-02T22:31:56.787Z,97843.88
2022-11-02T22:37:00.233Z,97846.50
2022-11-02T22:42:07.165Z,97848.91
2022-11-02T22:47:10.691Z,97855.13
2022-11-02T22:52:13.836Z,97857.84
2022-11-02T22:57:17.492Z,97855.94
2022-11-02T23:02:21.157Z,97856.75
2022-11-02T23:07:25.258Z,97866.59
2022-11-02T23:12:28.422Z,97870.81
2022-11-02T23:17:31.768Z,97861.59
2022-11-02T23:22:35.530Z,97858.44
2022-11-02T23:27:43.905Z,97859.72
2022-11-02T23:32:49.963Z,97859.38
2022-11-02T23:38:05.476Z,97862.63
2022-11-02T23:43:11.493Z,97865.31
2022-11-02T23:53:24.331Z,97870.22
2022-11-02T23:58:27.839Z,97869.72
